Time;durP1;ratioP1;P1;durP2;ratioP2;P2;SDS_P1;SDS_P2;PMS_P1;PMS_P2;Temp;Humidity;BMP_temperature;BMP_pressure;BME280_temperature;BME280_humidity;BME280_pressure;Samples;Min_cycle;Max_cycle;Signal;HPM_P1;HPM_P2
2022/04/26 03:37:26;;;;;;;1.15;0.68;;;9.40;99.90;;;;;;5012113;28;20481;-69
2022/04/26 03:39:52;;;;;;;6.03;2.95;;;9.50;99.90;;;;;;5011876;28;20037;-69
2022/04/26 03:42:18;;;;;;;1.65;1.55;;;9.50;99.90;;;;;;4996492;28;20049;-69
2022/04/26 03:44:44;;;;;;;0.43;0.43;;;9.50;99.90;;;;;;4991871;28;20058;-69
2022/04/26 03:47:10;;;;;;;0.85;0.85;;;9.40;99.90;;;;;;4992334;28;20060;-69
2022/04/26 03:49:36;;;;;;;2.08;1.52;;;9.50;99.90;;;;;;4992363;28;20034;-69
2022/04/26 03:52:02;;;;;;;2.30;1.05;;;9.60;99.90;;;;;;4992418;28;20053;-69
2022/04/26 03:54:28;;;;;;;0.95;0.95;;;9.50;99.90;;;;;;4991710;28;20080;-69
2022/04/26 03:56:54;;;;;;;1.20;1.00;;;9.60;99.90;;;;;;4990994;28;20470;-69
2022/04/26 03:59:19;;;;;;;1.23;1.20;;;9.70;99.90;;;;;;4991107;28;20100;-69
2022/04/26 04:01:47;;;;;;;2.00;1.77;;;9.70;99.90;;;;;;4990823;28;20418;-69
2022/04/26 04:04:14;;;;;;;8.23;2.78;;;9.70;99.90;;;;;;4990535;28;20041;-69
2022/04/26 04:06:40;;;;;;;2.25;2.10;;;9.70;99.90;;;;;;4989660;28;20066;-67
2022/04/26 04:09:06;;;;;;;4.50;2.30;;;9.70;99.90;;;;;;4999903;28;20117;-68
2022/04/26 04:11:32;;;;;;;1.10;1.08;;;9.60;99.90;;;;;;5004279;28;20109;-69
2022/04/26 04:13:58;;;;;;;1.92;1.77;;;9.50;99.90;;;;;;4998917;28;20114;-68
2022/04/26 04:16:23;;;;;;;0.55;0.55;;;9.40;99.90;;;;;;4995514;28;20031;-68
2022/04/26 04:21:34;;;;;;;1.00;1.00;;;9.60;99.90;;;;;;4967072;28;20034;-68
2022/04/26 04:24:00;;;;;;;8.55;2.70;;;9.60;99.90;;;;;;4989804;28;20095;-68
2022/04/26 04:26:26;;;;;;;1.23;0.77;;;9.70;99.90;;;;;;4991559;28;20031;-67
2022/04/26 04:28:52;;;;;;;2.72;2.55;;;9.70;99.90;;;;;;4991406;28;20520;-68
2022/04/26 04:31:18;;;;;;;1.50;1.40;;;9.70;99.90;;;;;;4990055;28;20378;-68
2022/04/26 04:33:43;;;;;;;0.88;0.85;;;9.70;99.90;;;;;;4989791;28;20037;-68
2022/04/26 04:36:10;;;;;;;1.27;1.23;;;9.50;99.90;;;;;;4991245;28;20034;-68
2022/04/26 04:38:36;;;;;;;4.97;2.50;;;9.50;99.90;;;;;;4973822;28;20034;-69
2022/04/26 04:41:02;;;;;;;2.22;1.83;;;9.60;99.90;;;;;;4991268;28;20045;-69
2022/04/26 04:43:30;;;;;;;4.15;3.80;;;9.60;99.90;;;;;;4973572;28;20041;-68
2022/04/26 04:45:56;;;;;;;6.25;3.42;;;9.70;99.90;;;;;;4973197;28;20096;-69
2022/04/26 04:48:22;;;;;;;1.83;1.73;;;9.80;99.90;;;;;;4991094;28;20034;-69
2022/04/26 04:50:48;;;;;;;3.72;1.98;;;9.90;99.90;;;;;;4990826;28;20042;-68
2022/04/26 04:53:14;;;;;;;0.73;0.73;;;10.00;99.90;;;;;;4990867;28;20018;-70
2022/04/26 04:55:41;;;;;;;2.13;1.38;;;10.00;99.90;;;;;;4990609;28;20029;-67
2022/04/26 04:58:07;;;;;;;3.70;1.73;;;10.00;99.90;;;;;;4990561;28;20584;-68
2022/04/26 05:00:34;;;;;;;1.35;1.08;;;10.00;99.90;;;;;;4973702;28;20034;-67
2022/04/26 05:03:00;;;;;;;1.60;1.50;;;9.90;99.90;;;;;;4990701;28;20038;-71
2022/04/26 05:05:26;;;;;;;2.58;1.90;;;10.00;99.90;;;;;;4973472;28;20103;-67
2022/04/26 05:07:52;;;;;;;0.68;0.68;;;10.00;99.90;;;;;;4993274;28;20401;-67
2022/04/26 05:10:19;;;;;;;0.82;0.80;;;9.90;99.90;;;;;;4989100;28;20062;-68
2022/04/26 05:12:45;;;;;;;2.42;1.67;;;9.90;99.90;;;;;;4991886;28;20050;-68
2022/04/26 05:15:11;;;;;;;0.60;0.60;;;9.90;99.90;;;;;;4992421;28;20104;-70
2022/04/26 05:17:37;;;;;;;1.05;1.00;;;10.00;99.90;;;;;;4989512;28;20030;-68
2022/04/26 05:20:05;;;;;;;1.23;1.13;;;9.90;99.90;;;;;;4989273;28;20497;-68
2022/04/26 05:22:31;;;;;;;1.35;1.25;;;9.90;99.90;;;;;;4989187;28;20121;-68
2022/04/26 05:24:57;;;;;;;6.88;1.25;;;9.80;99.90;;;;;;4988943;28;20105;-68
2022/04/26 05:27:27;;;;;;;1.80;1.60;;;9.80;99.90;;;;;;4989554;28;20019;-68
2022/04/26 05:29:54;;;;;;;0.40;0.40;;;9.80;99.90;;;;;;4990491;28;20512;-69
2022/04/26 05:32:26;;;;;;;1.33;1.23;;;9.80;99.90;;;;;;4989238;28;20038;-68
2022/04/26 05:34:56;;;;;;;2.10;1.95;;;9.70;99.90;;;;;;4989224;28;20584;-68
2022/04/26 05:37:22;;;;;;;0.75;0.70;;;9.70;99.90;;;;;;4989092;28;20030;-68
2022/04/26 05:39:48;;;;;;;1.40;1.30;;;9.70;99.90;;;;;;4990854;28;20430;-69
2022/04/26 05:42:14;;;;;;;1.02;0.55;;;9.70;99.90;;;;;;4990796;28;20100;-68
2022/04/26 05:44:40;;;;;;;2.15;1.85;;;9.70;99.90;;;;;;4984320;28;20031;-68
2022/04/26 05:47:09;;;;;;;2.58;2.10;;;9.70;99.90;;;;;;4991127;28;20034;-69
2022/04/26 05:49:36;;;;;;;6.43;2.88;;;9.70;99.90;;;;;;4992638;28;20026;-69
2022/04/26 05:52:03;;;;;;;4.30;2.55;;;9.70;99.90;;;;;;5003168;28;20033;-68
2022/04/26 05:54:30;;;;;;;1.20;1.20;;;9.70;99.90;;;;;;5003244;28;20026;-69
2022/04/26 05:56:56;;;;;;;4.10;1.35;;;9.70;99.90;;;;;;5008562;28;20128;-69
2022/04/26 05:59:23;;;;;;;2.17;1.92;;;9.70;99.90;;;;;;4994710;28;20490;-69
2022/04/26 06:01:51;;;;;;;1.95;1.67;;;9.80;99.90;;;;;;5006519;28;20038;-69
2022/04/26 06:04:18;;;;;;;2.15;2.05;;;9.80;99.90;;;;;;5013206;28;20034;-69
2022/04/26 06:06:44;;;;;;;1.73;1.63;;;9.80;99.90;;;;;;5005473;28;20030;-69
2022/04/26 06:09:13;;;;;;;2.40;1.38;;;9.90;99.90;;;;;;4983916;28;20585;-69
2022/04/26 06:11:39;;;;;;;1.50;1.25;;;9.90;99.90;;;;;;4992696;28;20034;-69
2022/04/26 06:14:05;;;;;;;1.10;1.00;;;10.00;99.90;;;;;;4993723;28;20038;-69
2022/04/26 06:16:31;;;;;;;3.30;1.65;;;10.00;99.90;;;;;;5008659;28;20026;-69
2022/04/26 06:18:57;;;;;;;3.15;1.80;;;10.10;99.90;;;;;;4997795;28;20026;-68
2022/04/26 06:21:23;;;;;;;4.03;1.95;;;10.10;99.90;;;;;;4993742;28;20108;-69
2022/04/26 06:23:49;;;;;;;2.35;2.20;;;10.20;99.90;;;;;;4993292;28;20022;-69
2022/04/26 06:26:16;;;;;;;1.98;1.88;;;10.20;99.90;;;;;;4992885;28;20046;-69
2022/04/26 06:28:41;;;;;;;1.75;1.35;;;10.30;99.90;;;;;;4976783;28;20034;-69
2022/04/26 06:31:07;;;;;;;1.05;1.05;;;10.30;99.90;;;;;;4976320;28;20189;-69
2022/04/26 06:33:34;;;;;;;2.05;1.70;;;10.20;99.90;;;;;;4992920;28;20076;-69
2022/04/26 06:36:00;;;;;;;1.42;1.27;;;10.20;99.90;;;;;;4995845;28;20038;-69
2022/04/26 06:38:26;;;;;;;0.95;0.95;;;10.30;99.90;;;;;;4976044;28;20173;-69
2022/04/26 06:40:53;;;;;;;0.47;0.47;;;10.30;99.90;;;;;;4975874;28;20125;-70
2022/04/26 06:43:20;;;;;;;0.77;0.77;;;10.40;99.90;;;;;;4975832;28;20035;-70
2022/04/26 06:45:46;;;;;;;2.80;2.60;;;10.50;99.90;;;;;;4976230;28;20034;-69
2022/04/26 06:48:14;;;;;;;1.75;1.65;;;10.60;99.90;;;;;;4993528;28;20176;-70
2022/04/26 06:50:40;;;;;;;1.25;1.00;;;10.70;99.90;;;;;;4992148;28;20042;-69
2022/04/26 06:53:07;;;;;;;1.52;1.42;;;10.70;99.90;;;;;;4992270;28;20496;-69
2022/04/26 06:55:33;;;;;;;0.93;0.93;;;10.70;99.90;;;;;;4975742;28;20102;-69
2022/04/26 06:57:59;;;;;;;2.30;1.88;;;10.60;99.90;;;;;;4991646;28;20029;-68
2022/04/26 07:00:25;;;;;;;1.35;1.27;;;10.70;99.90;;;;;;4991933;28;20038;-68
2022/04/26 07:02:51;;;;;;;1.55;1.15;;;10.90;99.90;;;;;;4991555;28;20034;-69
2022/04/26 07:05:17;;;;;;;5.35;2.60;;;10.90;99.90;;;;;;4991724;28;20034;-68
2022/04/26 07:07:48;;;;;;;0.95;0.95;;;10.90;99.90;;;;;;4992077;28;20041;-68
2022/04/26 07:10:13;;;;;;;1.52;1.42;;;10.90;99.90;;;;;;4975062;28;20652;-69
2022/04/26 07:12:39;;;;;;;0.65;0.65;;;10.90;99.90;;;;;;4975337;28;20042;-68
2022/04/26 07:15:05;;;;;;;4.78;2.50;;;10.90;99.90;;;;;;4962713;28;20547;-68
2022/04/26 07:17:31;;;;;;;2.35;2.15;;;11.00;99.90;;;;;;5012447;28;20030;-69
2022/04/26 07:19:58;;;;;;;2.17;2.05;;;11.00;99.90;;;;;;5012356;28;20382;-68
2022/04/26 07:22:25;;;;;;;0.77;0.70;;;11.00;99.90;;;;;;5010831;28;20034;-68
2022/04/26 07:24:51;;;;;;;1.98;1.70;;;11.00;99.90;;;;;;5010782;28;20398;-68
2022/04/26 07:27:18;;;;;;;1.52;1.42;;;11.00;99.90;;;;;;5012048;28;20021;-69
2022/04/26 07:29:52;;;;;;;1.02;1.00;;;11.10;99.90;;;;;;5010835;28;20058;-68
2022/04/26 07:32:18;;;;;;;1.88;1.42;;;11.30;99.90;;;;;;5011102;28;20048;-69
2022/04/26 07:34:48;;;;;;;0.68;0.68;;;11.40;99.90;;;;;;5015088;23;20162;-67
2022/04/26 07:37:13;;;;;;;0.70;0.70;;;11.40;99.90;;;;;;4979846;28;20057;-67
2022/04/26 07:39:39;;;;;;;0.85;0.85;;;11.40;99.90;;;;;;4990265;28;20066;-66
2022/04/26 07:42:05;;;;;;;5.40;1.60;;;11.70;99.90;;;;;;4991296;28;20072;-67
2022/04/26 07:44:34;;;;;;;0.82;0.82;;;11.70;99.90;;;;;;4985231;28;20031;-67
2022/04/26 07:47:01;;;;;;;2.03;1.23;;;11.90;99.90;;;;;;4970553;28;20039;-67
2022/04/26 07:49:27;;;;;;;2.10;0.82;;;11.90;99.90;;;;;;4970649;28;20042;-67
2022/04/26 07:51:53;;;;;;;1.70;1.58;;;12.00;99.90;;;;;;4954306;28;20030;-67
2022/04/26 07:54:20;;;;;;;4.78;2.13;;;12.20;99.90;;;;;;4971335;28;20109;-67
2022/04/26 07:56:46;;;;;;;0.47;0.47;;;12.30;99.90;;;;;;4970214;28;20027;-67
2022/04/26 07:59:14;;;;;;;0.50;0.50;;;12.40;99.90;;;;;;4954398;28;20033;-67
2022/04/26 08:01:40;;;;;;;0.88;0.50;;;12.50;99.90;;;;;;4970525;28;20134;-67
2022/04/26 08:04:09;;;;;;;0.73;0.73;;;12.40;99.90;;;;;;4953974;28;20026;-67
2022/04/26 08:06:35;;;;;;;0.77;0.77;;;12.60;99.90;;;;;;4977126;28;20352;-67
2022/04/26 08:09:01;;;;;;;0.65;0.65;;;12.70;99.90;;;;;;4973673;28;20085;-67
2022/04/26 08:11:28;;;;;;;1.55;0.50;;;12.40;99.90;;;;;;4973222;28;20042;-67
2022/04/26 08:13:57;;;;;;;1.52;0.82;;;12.80;99.90;;;;;;4973106;28;20026;-67
2022/04/26 08:16:23;;;;;;;0.15;0.15;;;12.90;99.90;;;;;;4978570;28;20102;-67
2022/04/26 08:18:49;;;;;;;0.28;0.28;;;13.00;99.90;;;;;;4971038;28;20046;-67
2022/04/26 08:21:16;;;;;;;2.03;0.82;;;12.90;99.90;;;;;;4971519;28;20039;-67
2022/04/26 08:29:14;;;;;;;1.25;0.95;;;13.30;99.90;;;;;;4970215;28;20027;-67
2022/04/26 08:31:41;;;;;;;0.32;0.32;;;13.40;99.90;;;;;;4971165;28;20545;-67
2022/04/26 08:34:07;;;;;;;0.50;0.50;;;13.40;99.90;;;;;;4953396;28;240261;-70
2022/04/26 08:36:33;;;;;;;4.75;0.75;;;13.50;99.90;;;;;;4952847;28;20038;-67
2022/04/26 08:38:59;;;;;;;0.15;0.15;;;13.60;99.90;;;;;;4974058;28;20026;-67
2022/04/26 08:41:25;;;;;;;0.10;0.10;;;13.90;99.90;;;;;;4991417;28;20105;-68
2022/04/26 08:43:50;;;;;;;0.52;0.52;;;14.10;99.90;;;;;;4973213;28;20034;-68
2022/04/26 08:46:17;;;;;;;0.40;0.40;;;14.10;99.90;;;;;;4951531;29;20472;-68
2022/04/26 08:51:29;;;;;;;0.13;0.13;;;13.70;99.90;;;;;;4951485;29;20113;-68
2022/04/26 08:53:55;;;;;;;1.17;1.00;;;13.50;99.90;;;;;;4951948;29;20027;-68
2022/04/26 08:56:21;;;;;;;0.15;0.15;;;13.60;99.90;;;;;;4951007;29;20027;-68
2022/04/26 08:58:47;;;;;;;0.57;0.57;;;13.60;99.90;;;;;;4934994;29;20031;-68
2022/04/26 09:01:16;;;;;;;0.10;0.10;;;13.30;99.90;;;;;;4951227;29;20130;-68
2022/04/26 09:03:54;;;;;;;0.30;0.30;;;13.30;99.90;;;;;;4951920;29;20563;-68
2022/04/26 09:06:39;;;;;;;1.30;1.20;;;13.30;99.90;;;;;;4958057;28;20038;-67
2022/04/26 09:09:21;;;;;;;0.00;0.00;;;13.40;99.90;;;;;;4990800;28;20118;-68
2022/04/26 09:11:48;;;;;;;0.00;0.00;;;13.60;99.90;;;;;;4974602;28;20052;-68
2022/04/26 09:14:47;;;;;;;0.45;0.45;;;13.90;99.90;;;;;;4990317;28;20109;-68
2022/04/26 09:17:17;;;;;;;0.57;0.57;;;14.00;99.90;;;;;;4951833;29;20114;-68
2022/04/26 09:19:55;;;;;;;1.58;0.85;;;14.00;99.90;;;;;;4935601;29;20114;-71
2022/04/26 09:22:27;;;;;;;0.20;0.20;;;13.90;99.90;;;;;;4952101;29;20054;-68
2022/04/26 09:25:06;;;;;;;0.00;0.00;;;13.60;99.90;;;;;;4934719;29;20498;-68
2022/04/26 09:27:38;;;;;;;0.10;0.10;;;13.50;99.90;;;;;;4951841;29;20399;-68
2022/04/26 09:30:13;;;;;;;0.08;0.08;;;13.50;99.90;;;;;;4950740;29;20027;-68
2022/04/26 09:32:50;;;;;;;14.05;1.60;;;13.40;99.90;;;;;;4935958;29;20085;-68
2022/04/26 09:35:31;;;;;;;0.10;0.10;;;13.60;99.90;;;;;;4922450;29;20479;-68
2022/04/26 09:37:59;;;;;;;0.20;0.20;;;13.90;99.90;;;;;;4988284;28;20069;-68
2022/04/26 09:40:33;;;;;;;0.98;0.93;;;14.00;99.90;;;;;;4961190;28;20088;-68
2022/04/26 09:42:59;;;;;;;1.70;1.50;;;13.90;99.90;;;;;;4994087;28;20081;-68
2022/04/26 09:45:25;;;;;;;0.00;0.00;;;13.50;99.90;;;;;;4981470;28;20042;-68
2022/04/26 09:47:57;;;;;;;0.43;0.43;;;14.00;99.90;;;;;;4974913;28;20450;-68
2022/04/26 09:50:26;;;;;;;0.00;0.00;;;14.50;99.90;;;;;;4973795;28;20031;-68
2022/04/26 09:52:55;;;;;;;0.63;0.63;;;14.70;99.90;;;;;;4973656;28;20027;-68
2022/04/26 09:55:21;;;;;;;0.00;0.00;;;14.90;99.90;;;;;;4974850;28;20027;-69
2022/04/26 09:57:48;;;;;;;0.00;0.00;;;14.70;99.90;;;;;;4974560;28;20023;-69
2022/04/26 10:00:15;;;;;;;0.00;0.00;;;14.30;99.90;;;;;;4973622;28;20553;-69
2022/04/26 10:02:50;;;;;;;0.63;0.63;;;14.20;99.90;;;;;;4974391;28;20046;-69
2022/04/26 10:05:21;;;;;;;0.20;0.20;;;14.10;99.90;;;;;;4973045;28;20034;-68
2022/04/26 10:07:48;;;;;;;0.10;0.10;;;14.00;99.90;;;;;;4988437;28;20030;-69
2022/04/26 10:10:14;;;;;;;0.30;0.22;;;13.90;99.90;;;;;;4976850;28;20509;-68
2022/04/26 10:13:31;;;;;;;0.15;0.15;;;13.60;99.90;;;;;;4960466;28;20042;-69
2022/04/26 10:15:27;;;;;;;0.00;0.00;;;13.50;99.90;;;;;;4969574;28;20030;-69
2022/04/26 10:17:53;;;;;;;0.30;0.28;;;13.60;99.90;;;;;;4983509;28;20314;-67
2022/04/26 10:20:39;;;;;;;0.15;0.15;;;13.50;99.90;;;;;;4992394;28;20034;-69
2022/04/26 10:23:05;;;;;;;0.00;0.00;;;13.40;99.90;;;;;;4946584;28;20031;-69
2022/04/26 10:25:30;;;;;;;0.63;0.52;;;13.50;99.90;;;;;;4954843;29;20035;-69
2022/04/26 10:28:26;;;;;;;0.30;0.30;;;13.60;99.90;;;;;;4954849;29;20039;-67
2022/04/26 10:30:55;;;;;;;0.30;0.30;;;13.60;99.90;;;;;;4953648;29;20075;-68
2022/04/26 10:33:42;;;;;;;0.10;0.10;;;13.60;99.90;;;;;;4953202;29;20183;-68
2022/04/26 10:36:32;;;;;;;0.00;0.00;;;13.60;99.90;;;;;;4956992;28;20672;-68
2022/04/26 10:39:12;;;;;;;0.35;0.35;;;13.60;99.90;;;;;;4993802;28;20125;-67
2022/04/26 10:41:43;;;;;;;0.10;0.10;;;13.30;99.90;;;;;;4993861;28;20030;-68
2022/04/26 10:44:26;;;;;;;0.10;0.10;;;13.40;99.90;;;;;;4972332;28;20112;-68
2022/04/26 10:46:56;;;;;;;0.43;0.32;;;13.20;99.90;;;;;;4973876;28;20038;-68
2022/04/26 10:49:25;;;;;;;0.20;0.20;;;13.00;99.90;;;;;;4973665;28;20549;-69
2022/04/26 10:51:52;;;;;;;0.00;0.00;;;12.90;99.90;;;;;;4974175;28;20342;-69
2022/04/26 10:54:45;;;;;;;0.10;0.10;;;12.70;99.90;;;;;;4973580;28;20179;-68
2022/04/26 10:57:21;;;;;;;0.15;0.15;;;12.50;99.90;;;;;;4973454;28;20037;-69
2022/04/26 10:59:56;;;;;;;0.00;0.00;;;12.40;99.90;;;;;;4973679;28;20063;-67
2022/04/26 11:02:25;;;;;;;0.00;0.00;;;12.30;99.90;;;;;;4973806;28;20497;-68
2022/04/26 11:05:01;;;;;;;0.82;0.80;;;12.40;99.90;;;;;;4973175;28;20039;-68
2022/04/26 11:07:28;;;;;;;0.05;0.05;;;12.50;99.90;;;;;;4986290;28;20410;-68
2022/04/26 11:09:59;;;;;;;0.38;0.38;;;12.50;99.90;;;;;;4975427;28;20580;-68
2022/04/26 11:12:27;;;;;;;0.20;0.20;;;12.50;99.90;;;;;;4976233;28;20074;-68
2022/04/26 11:14:56;;;;;;;0.10;0.10;;;12.60;99.90;;;;;;4992443;28;20038;-70
2022/04/26 11:17:24;;;;;;;0.15;0.15;;;12.60;99.90;;;;;;4991142;28;20077;-68
2022/04/26 11:20:06;;;;;;;0.00;0.00;;;12.60;99.90;;;;;;4990370;28;20049;-69
2022/04/26 11:22:41;;;;;;;0.00;0.00;;;12.60;99.90;;;;;;4992843;28;20045;-70
2022/04/26 11:28:11;;;;;;;0.00;0.00;;;12.70;99.90;;;;;;4975265;28;20022;-69
2022/04/26 11:30:53;;;;;;;0.00;0.00;;;12.90;99.90;;;;;;4992409;28;20031;-70
2022/04/26 11:33:22;;;;;;;0.10;0.10;;;13.10;99.90;;;;;;4988733;28;20030;-69
2022/04/26 11:35:56;;;;;;;0.00;0.00;;;13.30;99.90;;;;;;4987520;28;20026;-69
2022/04/26 11:38:23;;;;;;;0.10;0.10;;;13.30;99.90;;;;;;4936539;29;20031;-69
2022/04/26 11:40:51;;;;;;;0.00;0.00;;;13.60;99.90;;;;;;4952292;29;20031;-69
2022/04/26 11:43:35;;;;;;;0.00;0.00;;;13.80;99.90;;;;;;4951832;29;20443;-69
2022/04/26 11:46:02;;;;;;;0.25;0.25;;;14.00;99.90;;;;;;4965887;28;20050;-69
2022/04/26 11:48:33;;;;;;;0.00;0.00;;;14.00;99.90;;;;;;4952421;29;20069;-69
2022/04/26 11:51:00;;;;;;;0.00;0.00;;;14.10;99.90;;;;;;4952505;29;20031;-69
2022/04/26 11:53:37;;;;;;;1.02;0.93;;;14.20;99.90;;;;;;4951873;29;20039;-71
2022/04/26 11:56:06;;;;;;;0.10;0.10;;;14.50;99.90;;;;;;4935838;29;20118;-70
2022/04/26 11:58:41;;;;;;;0.80;0.17;;;14.50;99.90;;;;;;4952350;29;20031;-72
2022/04/26 12:01:12;;;;;;;0.00;0.00;;;14.70;99.90;;;;;;4951897;29;20122;-70
2022/04/26 12:03:48;;;;;;;0.00;0.00;;;14.90;99.90;;;;;;4934905;29;20390;-68
2022/04/26 12:06:20;;;;;;;0.00;0.00;;;15.00;99.90;;;;;;4954901;28;20031;-69
2022/04/26 12:08:53;;;;;;;0.08;0.08;;;15.20;99.90;;;;;;4970389;28;20512;-69
2022/04/26 12:11:22;;;;;;;0.15;0.15;;;15.30;99.90;;;;;;4970474;28;20103;-69
2022/04/26 12:14:12;;;;;;;0.00;0.00;;;14.90;99.90;;;;;;4971518;28;20031;-69
2022/04/26 12:16:46;;;;;;;1.65;0.40;;;15.10;99.90;;;;;;4985575;28;20052;-68
2022/04/26 12:19:12;;;;;;;0.13;0.13;;;15.20;99.90;;;;;;4963645;28;20114;-70
2022/04/26 12:21:57;;;;;;;0.00;0.00;;;15.10;99.90;;;;;;4971768;28;20038;-68
2022/04/26 12:24:31;;;;;;;0.10;0.10;;;14.90;99.90;;;;;;4970553;28;20034;-69
2022/04/26 12:27:12;;;;;;;0.00;0.00;;;14.80;99.90;;;;;;4970712;28;20045;-69
2022/04/26 12:29:43;;;;;;;1.27;0.25;;;14.50;99.90;;;;;;4970887;28;20022;-69
2022/04/26 12:32:15;;;;;;;0.28;0.25;;;14.20;99.90;;;;;;4971938;28;20039;-69
2022/04/26 12:34:57;;;;;;;0.13;0.13;;;13.90;99.90;;;;;;4971336;28;20604;-69
2022/04/26 12:37:29;;;;;;;0.00;0.00;;;13.70;99.90;;;;;;4983616;28;20038;-69
2022/04/26 12:40:17;;;;;;;0.00;0.00;;;13.50;99.90;;;;;;4974146;28;20030;-69
2022/04/26 12:42:45;;;;;;;0.00;0.00;;;13.30;99.90;;;;;;4957464;28;20397;-68
2022/04/26 12:45:23;;;;;;;0.25;0.25;;;13.20;99.90;;;;;;4980727;28;20079;-68
2022/04/26 12:51:21;;;;;;;0.10;0.10;;;13.00;99.90;;;;;;4971609;28;20051;-69
2022/04/26 12:53:50;;;;;;;0.00;0.00;;;12.80;99.90;;;;;;4971347;28;20042;-69
2022/04/26 12:56:18;;;;;;;0.00;0.00;;;13.10;99.90;;;;;;4970283;28;20035;-69
2022/04/26 12:58:46;;;;;;;0.00;0.00;;;13.50;99.90;;;;;;4972009;28;20118;-69
2022/04/26 13:01:13;;;;;;;0.80;0.70;;;13.70;99.90;;;;;;4970135;28;20137;-70
2022/04/26 13:03:41;;;;;;;0.35;0.35;;;13.80;99.90;;;;;;4971374;28;20043;-69
2022/04/26 13:06:17;;;;;;;0.00;0.00;;;13.90;99.90;;;;;;4972161;28;20038;-69
2022/04/26 13:08:48;;;;;;;0.00;0.00;;;13.80;99.90;;;;;;4956824;28;20553;-69
2022/04/26 13:11:17;;;;;;;;;;;14.20;99.90;;;;;;4991156;28;20074;-70
2022/04/26 13:13:49;;;;;;;0.00;0.00;;;14.60;99.90;;;;;;4973729;28;19955;-69
2022/04/26 13:16:19;;;;;;;0.00;0.00;;;15.00;99.90;;;;;;4974102;28;20045;-69
2022/04/26 13:18:46;;;;;;;0.00;0.00;;;15.00;99.90;;;;;;4990576;28;20034;-69
2022/04/26 13:21:13;;;;;;;0.00;0.00;;;15.10;99.90;;;;;;4990343;28;20382;-70
2022/04/26 13:23:41;;;;;;;0.00;0.00;;;14.80;99.90;;;;;;4989924;28;20751;-70
2022/04/26 13:26:07;;;;;;;0.00;0.00;;;14.60;99.90;;;;;;4961567;28;20023;-69
2022/04/26 13:28:34;;;;;;;0.00;0.00;;;14.60;99.90;;;;;;4970752;28;20043;-69
2022/04/26 13:30:59;;;;;;;0.00;0.00;;;14.80;99.90;;;;;;4970687;28;20038;-69
2022/04/26 13:33:25;;;;;;;0.00;0.00;;;14.60;99.90;;;;;;4969049;28;20035;-70
2022/04/26 13:35:51;;;;;;;0.00;0.00;;;14.30;99.90;;;;;;4952111;28;20027;-70
2022/04/26 13:38:17;;;;;;;0.00;0.00;;;14.10;99.90;;;;;;4990089;28;20083;-69
2022/04/26 13:40:43;;;;;;;0.00;0.00;;;14.00;99.90;;;;;;4990399;28;20116;-69
2022/04/26 13:43:10;;;;;;;0.00;0.00;;;13.70;99.90;;;;;;4973185;28;20038;-69
2022/04/26 13:45:36;;;;;;;0.10;0.05;;;13.40;99.90;;;;;;4956598;28;20035;-70
2022/04/26 13:48:10;;;;;;;0.00;0.00;;;13.10;99.90;;;;;;4951820;29;20114;-69
2022/04/26 13:50:35;;;;;;;0.00;0.00;;;13.10;99.90;;;;;;4934900;29;20064;-70
2022/04/26 13:53:02;;;;;;;0.03;0.03;;;12.90;99.90;;;;;;4950039;28;20063;-69
2022/04/26 13:55:27;;;;;;;0.00;0.00;;;13.00;99.90;;;;;;4988198;28;20034;-69
2022/04/26 13:57:54;;;;;;;0.00;0.00;;;12.90;99.90;;;;;;4990106;28;20031;-69
2022/04/26 14:00:21;;;;;;;0.00;0.00;;;12.80;99.90;;;;;;4989061;28;20026;-69
2022/04/26 14:02:48;;;;;;;0.00;0.00;;;12.80;99.90;;;;;;4972927;28;20113;-69
2022/04/26 14:05:16;;;;;;;0.00;0.00;;;12.90;99.90;;;;;;4973691;28;20037;-69
2022/04/26 14:07:42;;;;;;;0.00;0.00;;;12.90;99.90;;;;;;4974725;28;20458;-68
2022/04/26 14:10:08;;;;;;;0.00;0.00;;;12.80;99.90;;;;;;4969436;28;20051;-69
2022/04/26 14:12:36;;;;;;;0.00;0.00;;;12.80;99.90;;;;;;4969470;28;20066;-68
2022/04/26 14:23:16;;;;;;;0.20;0.20;;;13.00;99.90;;;;;;4989584;28;20026;-67
2022/04/26 14:25:42;;;;;;;0.00;0.00;;;13.00;99.90;;;;;;4973621;28;20093;-67
2022/04/26 14:28:08;;;;;;;0.00;0.00;;;13.10;99.90;;;;;;4984411;28;20532;-67
2022/04/26 14:30:34;;;;;;;0.40;0.20;;;13.20;99.90;;;;;;4974184;28;20042;-68
2022/04/26 14:33:00;;;;;;;0.10;0.10;;;13.40;99.90;;;;;;4973213;28;20038;-68
2022/04/26 14:35:31;;;;;;;0.00;0.00;;;13.70;99.90;;;;;;4973858;28;20353;-68
2022/04/26 14:38:01;;;;;;;0.03;0.03;;;13.90;99.90;;;;;;4976804;28;20031;-68
2022/04/26 14:40:27;;;;;;;0.10;0.10;;;13.90;99.90;;;;;;4956495;28;20402;-68
2022/04/26 14:42:56;;;;;;;0.00;0.00;;;13.80;99.90;;;;;;4955791;28;20031;-69
2022/04/26 14:45:22;;;;;;;0.00;0.00;;;13.70;99.90;;;;;;4972108;28;20390;-68
2022/04/26 14:47:48;;;;;;;0.00;0.00;;;13.70;99.90;;;;;;4973382;28;20027;-69
2022/04/26 14:50:15;;;;;;;0.00;0.00;;;13.50;99.90;;;;;;4971956;28;20090;-69
2022/04/26 14:52:44;;;;;;;0.00;0.00;;;13.40;99.90;;;;;;4973028;28;20045;-67
2022/04/26 14:55:10;;;;;;;0.20;0.20;;;13.40;99.90;;;;;;4972263;28;20026;-69
2022/04/26 14:57:42;;;;;;;0.00;0.00;;;13.20;99.90;;;;;;4973027;28;20077;-68
2022/04/26 15:00:09;;;;;;;0.43;0.38;;;13.20;99.90;;;;;;4972282;28;20023;-69
2022/04/26 15:02:40;;;;;;;0.00;0.00;;;13.30;99.90;;;;;;4973033;28;20054;-71
2022/04/26 15:05:10;;;;;;;0.10;0.10;;;13.20;99.90;;;;;;4971648;28;20030;-68
2022/04/26 15:10:24;;;;;;;0.00;0.00;;;13.30;99.90;;;;;;4970808;28;20587;-69
2022/04/26 15:18:20;;;;;;;0.00;0.00;;;13.10;99.90;;;;;;4973279;28;20026;-68
2022/04/26 15:20:48;;;;;;;0.00;0.00;;;13.00;99.90;;;;;;4973080;28;20023;-69
2022/04/26 15:23:15;;;;;;;0.00;0.00;;;12.90;99.90;;;;;;4973088;28;20034;-68
2022/04/26 15:25:41;;;;;;;0.10;0.10;;;12.80;99.90;;;;;;4955924;28;20053;-68
2022/04/26 15:28:09;;;;;;;0.00;0.00;;;12.70;99.90;;;;;;4971828;28;20414;-68
2022/04/26 15:30:42;;;;;;;0.00;0.00;;;12.60;99.90;;;;;;4972008;28;20054;-68
2022/04/26 15:33:08;;;;;;;0.00;0.00;;;12.50;99.90;;;;;;4972713;28;20063;-68
2022/04/26 15:35:34;;;;;;;0.00;0.00;;;12.40;99.90;;;;;;4972908;28;20026;-68
2022/04/26 15:38:00;;;;;;;4.78;0.57;;;12.30;99.90;;;;;;4965703;28;20395;-69
2022/04/26 15:40:25;;;;;;;0.00;0.00;;;12.10;99.90;;;;;;4980914;28;20038;-70
2022/04/26 15:42:51;;;;;;;0.00;0.00;;;12.10;99.90;;;;;;4990019;28;20026;-68
2022/04/26 15:45:17;;;;;;;0.00;0.00;;;12.00;99.90;;;;;;4963886;28;20525;-70
2022/04/26 15:47:42;;;;;;;0.00;0.00;;;12.00;99.90;;;;;;4977556;28;20114;-71
2022/04/26 15:50:08;;;;;;;0.00;0.00;;;12.00;99.90;;;;;;4972977;28;20537;-72
2022/04/26 15:52:35;;;;;;;0.15;0.15;;;11.90;99.90;;;;;;4972622;28;20066;-71
2022/04/26 15:55:01;;;;;;;0.00;0.00;;;11.90;99.90;;;;;;4972364;28;20027;-68
2022/04/26 15:57:26;;;;;;;0.10;0.10;;;11.90;99.90;;;;;;4972615;28;20045;-68
2022/04/26 15:59:52;;;;;;;0.00;0.00;;;11.90;99.90;;;;;;4972351;28;20215;-68
2022/04/26 16:02:23;;;;;;;0.00;0.00;;;11.90;99.90;;;;;;4972402;28;20027;-68
2022/04/26 16:04:50;;;;;;;0.22;0.22;;;11.90;99.90;;;;;;4972079;28;20052;-69
2022/04/26 16:07:17;;;;;;;0.00;0.00;;;11.80;99.90;;;;;;4983387;28;20026;-69
2022/04/26 16:21:03;;;;;;;0.20;0.20;;;11.90;99.90;;;;;;4891999;29;20036;-69
2022/04/26 16:23:29;;;;;;;0.10;0.10;;;11.90;99.90;;;;;;4934910;28;20503;-66
2022/04/26 16:26:01;;;;;;;0.00;0.00;;;12.00;99.90;;;;;;4953675;28;20085;-67
2022/04/26 16:28:30;;;;;;;0.35;0.35;;;12.10;99.90;;;;;;4953289;28;20443;-69
2022/04/26 16:30:56;;;;;;;0.00;0.00;;;12.10;99.90;;;;;;4960460;28;20028;-68
2022/04/26 16:33:22;;;;;;;0.45;0.45;;;11.90;99.90;;;;;;4948795;28;20027;-68
2022/04/26 16:35:48;;;;;;;0.00;0.00;;;11.90;99.90;;;;;;4953409;28;20028;-68
2022/04/26 16:38:17;;;;;;;0.00;0.00;;;12.10;99.90;;;;;;4969847;28;20058;-66
2022/04/26 16:40:49;;;;;;;0.00;0.00;;;12.00;99.90;;;;;;4962562;28;20108;-69
2022/04/26 16:43:16;;;;;;;0.30;0.20;;;12.10;99.90;;;;;;4961684;28;20031;-66
2022/04/26 16:45:51;;;;;;;0.10;0.10;;;12.10;99.90;;;;;;4968610;28;20153;-66
2022/04/26 16:48:17;;;;;;;0.00;0.00;;;12.10;99.90;;;;;;4953249;28;20070;-66
2022/04/26 16:50:43;;;;;;;0.35;0.35;;;11.90;99.90;;;;;;4956476;28;20054;-67
2022/04/26 16:53:09;;;;;;;0.10;0.10;;;11.70;99.90;;;;;;4969091;28;20026;-67
2022/04/26 16:55:35;;;;;;;0.10;0.10;;;11.50;99.90;;;;;;4937505;28;20191;-66
2022/04/26 16:58:02;;;;;;;0.00;0.00;;;11.40;99.90;;;;;;4970943;28;20105;-68
2022/04/26 17:00:28;;;;;;;0.00;0.00;;;11.60;99.90;;;;;;4970155;28;20103;-66
2022/04/26 17:02:56;;;;;;;0.00;0.00;;;11.70;99.90;;;;;;4970950;28;20027;-67
2022/04/26 17:05:22;;;;;;;0.00;0.00;;;11.60;99.90;;;;;;4968607;28;20022;-66
2022/04/26 17:07:52;;;;;;;0.00;0.00;;;11.50;99.90;;;;;;4969215;28;20411;-67
2022/04/26 17:10:18;;;;;;;0.00;0.00;;;11.60;99.90;;;;;;4953143;28;20041;-69
2022/04/26 17:12:49;;;;;;;0.10;0.10;;;11.60;99.90;;;;;;4970696;28;20049;-67
2022/04/26 17:15:16;;;;;;;0.00;0.00;;;11.60;99.90;;;;;;4953061;28;20456;-67
2022/04/26 17:17:44;;;;;;;0.30;0.30;;;11.80;99.90;;;;;;4953422;28;20043;-67